Time;durP1;ratioP1;P1;durP2;ratioP2;P2;SDS_P1;SDS_P2;PMS_P1;PMS_P2;Temp;Humidity;BMP_temperature;BMP_pressure;BME280_temperature;BME280_humidity;BME280_pressure;Samples;Min_cycle;Max_cycle;Signal;HPM_P1;HPM_P2
2023/07/08 00:03:21;;;;;;;;;;;22.20;99.90;;;;;;8365306;28;19933;-73
2023/07/08 00:07:23;;;;;;;;;;;22.20;99.90;;;;;;8387626;28;19925;-73
2023/07/08 00:11:25;;;;;;;;;;;22.20;99.90;;;;;;8354690;28;20422;-73
2023/07/08 00:15:28;;;;;;;;;;;22.10;99.90;;;;;;8370277;28;19952;-73
2023/07/08 00:19:31;;;;;;;;;;;22.00;99.90;;;;;;8371469;28;19933;-73
2023/07/08 00:23:35;;;;;;;;;;;22.00;99.90;;;;;;8339663;28;20319;-73
2023/07/08 00:27:37;;;;;;;;;;;21.90;99.90;;;;;;8388502;28;19929;-73
2023/07/08 00:31:39;;;;;;;;;;;21.90;99.90;;;;;;8401482;28;19928;-73
2023/07/08 00:35:41;;;;;;;;;;;21.80;99.90;;;;;;8367255;28;19924;-73
2023/07/08 00:39:43;;;;;;;;;;;21.80;99.90;;;;;;8364835;28;20055;-73
2023/07/08 00:43:47;;;;;;;;;;;21.70;99.90;;;;;;8380747;28;19931;-73
2023/07/08 00:47:50;;;;;;;;;;;21.80;99.90;;;;;;8362993;28;19925;-73
2023/07/08 00:51:51;;;;;;;;;;;21.70;99.90;;;;;;8380778;28;19924;-73
2023/07/08 00:55:55;;;;;;;;;;;21.60;99.90;;;;;;8361455;28;20007;-73
2023/07/08 01:00:09;;;;;;;;;;;21.60;99.90;;;;;;8382713;28;20008;-73
2023/07/08 01:04:12;;;;;;;;;;;21.60;99.90;;;;;;8383071;28;20375;-73
2023/07/08 01:08:14;;;;;;;;;;;21.60;99.90;;;;;;8377801;28;19925;-73
2023/07/08 01:12:18;;;;;;;;;;;21.50;99.90;;;;;;8380017;28;19935;-73
2023/07/08 01:16:21;;;;;;;;;;;21.40;99.90;;;;;;8359826;28;19936;-71
2023/07/08 01:20:23;;;;;;;;;;;21.50;99.90;;;;;;8362642;28;19926;-73
2023/07/08 01:24:25;;;;;;;;;;;21.40;99.90;;;;;;8354768;28;19932;-73
2023/07/08 01:28:27;;;;;;;;;;;21.30;99.90;;;;;;8368148;28;19924;-73
2023/07/08 01:32:30;;;;;;;;;;;21.30;99.90;;;;;;8385706;28;19925;-73
2023/07/08 01:36:36;;;;;;;;;;;21.30;99.90;;;;;;8371037;28;19936;-73
2023/07/08 01:40:47;;;;;;;;;;;21.20;99.90;;;;;;8382334;28;19932;-74
2023/07/08 01:44:48;;;;;;;;;;;21.10;99.90;;;;;;8362225;28;19978;-73
2023/07/08 01:48:54;;;;;;;;;;;21.00;99.90;;;;;;8336032;28;19925;-73
2023/07/08 01:52:57;;;;;;;;;;;21.00;99.90;;;;;;8376944;28;19929;-73
2023/07/08 01:57:00;;;;;;;;;;;21.00;99.90;;;;;;8352059;28;19929;-73
2023/07/08 02:01:02;;;;;;;;;;;21.00;99.90;;;;;;8356655;28;19948;-73
2023/07/08 02:05:04;;;;;;;;;;;20.90;99.90;;;;;;8345818;28;19932;-73
2023/07/08 02:09:06;;;;;;;;;;;20.90;99.90;;;;;;8377032;28;19929;-73
2023/07/08 02:13:07;;;;;;;;;;;20.90;99.90;;;;;;8353482;28;20362;-73
2023/07/08 02:17:09;;;;;;;;;;;20.80;99.90;;;;;;8366027;28;19928;-73
2023/07/08 02:21:12;;;;;;;;;;;20.80;99.90;;;;;;8357003;28;19925;-73
2023/07/08 02:25:14;;;;;;;;;;;20.70;99.90;;;;;;8352146;28;20295;-73
2023/07/08 02:29:16;;;;;;;;;;;20.60;99.90;;;;;;8362169;28;20387;-73
2023/07/08 02:33:17;;;;;;;;;;;20.60;99.90;;;;;;8363310;28;20338;-73
2023/07/08 02:37:19;;;;;;;;;;;20.60;99.90;;;;;;8356856;28;19936;-73
2023/07/08 02:41:21;;;;;;;;;;;20.50;99.90;;;;;;8363469;28;19970;-73
2023/07/08 02:45:22;;;;;;;;;;;20.40;99.90;;;;;;8372573;28;19948;-73
2023/07/08 02:49:24;;;;;;;;;;;20.40;99.90;;;;;;8358520;28;20402;-73
2023/07/08 02:53:26;;;;;;;;;;;20.40;99.90;;;;;;8368649;28;19937;-73
2023/07/08 02:57:27;;;;;;;;;;;20.30;99.90;;;;;;8354536;28;19924;-73
2023/07/08 03:01:29;;;;;;;;;;;20.30;99.90;;;;;;8373923;28;19925;-73
2023/07/08 03:05:31;;;;;;;;;;;20.30;99.90;;;;;;8351258;28;19936;-73
2023/07/08 03:09:32;;;;;;;;;;;20.20;99.90;;;;;;8342676;28;19925;-73
2023/07/08 03:13:34;;;;;;;;;;;20.20;99.90;;;;;;8336175;28;19940;-74
2023/07/08 03:17:36;;;;;;;;;;;20.20;99.90;;;;;;8359343;28;19940;-73
2023/07/08 03:21:38;;;;;;;;;;;20.20;99.90;;;;;;8341796;28;20277;-73
2023/07/08 03:25:40;;;;;;;;;;;20.20;99.90;;;;;;8342438;28;19940;-73
2023/07/08 03:29:41;;;;;;;;;;;20.10;99.90;;;;;;8340329;28;19933;-73
2023/07/08 03:33:43;;;;;;;;;;;20.10;99.90;;;;;;8358521;28;19924;-73
2023/07/08 03:37:45;;;;;;;;;;;20.10;99.90;;;;;;8331769;28;20434;-73
2023/07/08 03:41:47;;;;;;;;;;;20.10;99.90;;;;;;8330162;28;19933;-73
2023/07/08 03:45:49;;;;;;;;;;;20.10;99.90;;;;;;8356103;28;20375;-73
2023/07/08 03:49:51;;;;;;;;;;;20.00;99.90;;;;;;8359414;28;20274;-73
2023/07/08 03:53:53;;;;;;;;;;;20.00;99.90;;;;;;8352356;28;20019;-73
2023/07/08 04:02:58;;;;;;;;;;;20.00;99.90;;;;;;8358334;28;20379;-73
2023/07/08 04:06:59;;;;;;;;;;;20.00;99.90;;;;;;8345506;28;19971;-73
2023/07/08 04:11:01;;;;;;;;;;;20.00;99.90;;;;;;8358019;28;20438;-73
2023/07/08 04:15:03;;;;;;;;;;;20.00;99.90;;;;;;8373217;28;19932;-73
2023/07/08 04:19:12;;;;;;;;;;;20.00;99.90;;;;;;8361709;28;19932;-73
2023/07/08 04:23:14;;;;;;;;;;;20.00;99.90;;;;;;8314398;28;19933;-73
2023/07/08 04:27:17;;;;;;;;;;;20.00;99.90;;;;;;8315982;28;19936;-73
2023/07/08 04:31:18;;;;;;;;;;;20.00;99.90;;;;;;8317801;28;19939;-73
2023/07/08 04:35:20;;;;;;;;;;;20.10;99.90;;;;;;8302127;28;20065;-73
2023/07/08 04:39:22;;;;;;;;;;;20.10;99.90;;;;;;8317129;28;19926;-73
2023/07/08 04:43:28;;;;;;;;;;;20.20;99.90;;;;;;8321308;28;19925;-73
2023/07/08 04:47:30;;;;;;;;;;;20.20;99.90;;;;;;8325335;28;19929;-73
2023/07/08 04:51:32;;;;;;;;;;;20.20;99.90;;;;;;8341991;28;19925;-73
2023/07/08 04:55:35;;;;;;;;;;;20.30;99.90;;;;;;8331566;28;19929;-73
2023/07/08 04:59:37;;;;;;;;;;;20.30;99.90;;;;;;8327637;28;20377;-73
2023/07/08 05:03:39;;;;;;;;;;;20.40;99.90;;;;;;8335811;28;19924;-73
2023/07/08 05:07:40;;;;;;;;;;;20.40;99.90;;;;;;8337005;28;20410;-73
2023/07/08 05:11:42;;;;;;;;;;;20.50;99.90;;;;;;8327191;28;20202;-73
2023/07/08 05:15:43;;;;;;;;;;;20.50;99.90;;;;;;8327800;28;20006;-73
2023/07/08 05:19:45;;;;;;;;;;;20.60;99.90;;;;;;8307792;28;19924;-73
2023/07/08 05:23:51;;;;;;;;;;;20.70;99.90;;;;;;8348752;28;19929;-73
2023/07/08 05:27:53;;;;;;;;;;;20.70;99.90;;;;;;8355254;28;19941;-73
2023/07/08 05:31:54;;;;;;;;;;;20.80;99.90;;;;;;8365964;28;20328;-73
2023/07/08 05:35:56;;;;;;;;;;;20.90;99.90;;;;;;8399218;28;19924;-73
2023/07/08 05:40:00;;;;;;;;;;;20.90;99.90;;;;;;8372428;28;19925;-73
2023/07/08 05:44:01;;;;;;;;;;;21.00;99.90;;;;;;8356132;28;19924;-73
2023/07/08 05:48:03;;;;;;;;;;;21.10;99.90;;;;;;8369992;28;20375;-73
2023/07/08 05:52:10;;;;;;;;;;;21.20;99.90;;;;;;8369280;28;20001;-73
2023/07/08 05:56:12;;;;;;;;;;;21.30;99.90;;;;;;8356519;28;19940;-73
2023/07/08 06:00:14;;;;;;;;;;;21.40;99.90;;;;;;8372142;28;19933;-73
2023/07/08 06:04:22;;;;;;;;;;;21.50;99.90;;;;;;8372222;28;19933;-73
2023/07/08 06:08:23;;;;;;;;;;;21.60;99.90;;;;;;8349557;28;19998;-73
2023/07/08 06:12:25;;;;;;;;;;;21.70;99.90;;;;;;8361115;28;19936;-73
2023/07/08 06:16:28;;;;;;;;;;;21.80;99.90;;;;;;8359913;28;19948;-73
2023/07/08 06:20:40;;;;;;;;;;;21.90;99.90;;;;;;8354971;28;19925;-73
2023/07/08 06:24:42;;;;;;;;;;;22.00;99.90;;;;;;8348170;28;20651;-73
2023/07/08 06:28:43;;;;;;;;;;;22.10;99.90;;;;;;8381788;28;19948;-73
2023/07/08 06:32:45;;;;;;;;;;;22.20;99.90;;;;;;8379343;28;19932;-73
2023/07/08 06:36:47;;;;;;;;;;;22.30;99.90;;;;;;8379482;28;19928;-73
2023/07/08 06:40:48;;;;;;;;;;;22.40;99.90;;;;;;8370635;28;20284;-73
2023/07/08 06:44:50;;;;;;;;;;;22.50;99.90;;;;;;8376086;28;19932;-73
2023/07/08 06:48:54;;;;;;;;;;;22.60;99.90;;;;;;8382491;28;19929;-73
2023/07/08 06:52:55;;;;;;;;;;;22.70;99.90;;;;;;8382537;28;19986;-73
2023/07/08 06:56:57;;;;;;;;;;;22.80;99.90;;;;;;8352626;28;19936;-73
2023/07/08 07:00:59;;;;;;;;;;;22.80;99.90;;;;;;8334132;28;19924;-73
2023/07/08 07:05:02;;;;;;;;;;;23.00;99.90;;;;;;8359487;28;19924;-73
2023/07/08 07:09:03;;;;;;;;;;;23.10;99.90;;;;;;8364286;28;19928;-73
2023/07/08 07:13:05;;;;;;;;;;;23.20;99.90;;;;;;8386229;28;19974;-73
2023/07/08 07:17:07;;;;;;;;;;;23.30;99.90;;;;;;8371577;28;19925;-73
2023/07/08 07:21:09;;;;;;;;;;;23.40;99.90;;;;;;8377747;28;19928;-73
2023/07/08 07:25:11;;;;;;;;;;;23.50;99.90;;;;;;8352394;28;19925;-73
2023/07/08 07:29:15;;;;;;;;;;;23.60;99.90;;;;;;8385013;28;19925;-73
2023/07/08 07:33:17;;;;;;;;;;;23.70;99.90;;;;;;8317965;28;19929;-73
2023/07/08 07:37:20;;;;;;;;;;;23.70;99.90;;;;;;8377625;28;20264;-73
2023/07/08 07:41:22;;;;;;;;;;;23.80;99.90;;;;;;8358363;28;20355;-74
2023/07/08 07:45:23;;;;;;;;;;;23.90;99.90;;;;;;8363806;28;20367;-73
2023/07/08 07:49:25;;;;;;;;;;;24.00;99.90;;;;;;8391414;28;19924;-73
2023/07/08 07:53:27;;;;;;;;;;;24.20;99.90;;;;;;8386909;28;19961;-73
2023/07/08 07:57:28;;;;;;;;;;;24.20;99.90;;;;;;8388662;28;20445;-72
2023/07/08 08:01:30;;;;;;;;;;;24.40;99.90;;;;;;8374448;28;19954;-73
2023/07/08 08:05:32;;;;;;;;;;;24.50;99.90;;;;;;8362109;28;20330;-73
2023/07/08 08:09:33;;;;;;;;;;;24.60;99.90;;;;;;8352527;28;19929;-74
2023/07/08 08:13:35;;;;;;;;;;;24.70;99.90;;;;;;8334385;28;19924;-73
2023/07/08 08:17:37;;;;;;;;;;;24.80;99.90;;;;;;8335271;28;19925;-74
2023/07/08 08:21:38;;;;;;;;;;;24.80;99.90;;;;;;8339943;28;19925;-73
2023/07/08 08:25:40;;;;;;;;;;;24.90;99.90;;;;;;8333884;28;19929;-74
2023/07/08 08:29:42;;;;;;;;;;;24.90;99.90;;;;;;8334082;28;19966;-73
2023/07/08 08:33:46;;;;;;;;;;;25.00;99.90;;;;;;8336378;28;20275;-74
2023/07/08 08:37:48;;;;;;;;;;;25.00;99.90;;;;;;8335522;28;19956;-74
2023/07/08 08:41:53;;;;;;;;;;;25.10;99.90;;;;;;8312605;28;19975;-73
2023/07/08 08:45:58;;;;;;;;;;;25.10;99.90;;;;;;8349925;28;19955;-73
2023/07/08 08:50:24;;;;;;;;;;;25.20;99.90;;;;;;8336491;28;19925;-73
2023/07/08 08:54:26;;;;;;;;;;;25.30;99.90;;;;;;8310322;28;19929;-74
2023/07/08 08:58:31;;;;;;;;;;;25.30;99.90;;;;;;8331928;28;20411;-74
2023/07/08 09:02:46;;;;;;;;;;;25.40;99.90;;;;;;8333011;28;20335;-73
2023/07/08 09:06:48;;;;;;;;;;;25.50;99.90;;;;;;8338605;28;19931;-73
2023/07/08 09:10:56;;;;;;;;;;;25.50;99.90;;;;;;8336449;28;19928;-73
2023/07/08 09:14:58;;;;;;;;;;;25.60;99.90;;;;;;8336777;28;20449;-73
2023/07/08 09:19:04;;;;;;;;;;;25.70;99.90;;;;;;8351774;28;19933;-74
2023/07/08 09:23:25;;;;;;;;;;;25.70;99.90;;;;;;8333978;28;19933;-73
2023/07/08 09:27:27;;;;;;;;;;;25.80;99.90;;;;;;8330888;28;20422;-74
2023/07/08 09:31:31;;;;;;;;;;;25.90;99.90;;;;;;8332476;28;19925;-73
2023/07/08 09:35:46;;;;;;;;;;;25.90;99.90;;;;;;8331566;28;19933;-74
2023/07/08 09:39:48;;;;;;;;;;;25.90;99.90;;;;;;8342597;28;19925;-74
2023/07/08 09:43:50;;;;;;;;;;;26.00;99.90;;;;;;8332572;28;19925;-73
2023/07/08 09:47:52;;;;;;;;;;;26.00;99.90;;;;;;8335986;28;19983;-74
2023/07/08 09:51:54;;;;;;;;;;;26.10;99.90;;;;;;8332759;28;19994;-73
2023/07/08 09:55:58;;;;;;;;;;;26.20;99.90;;;;;;8306724;28;19925;-72
2023/07/08 10:00:02;;;;;;;;;;;26.30;99.90;;;;;;8316069;28;19940;-72
2023/07/08 10:04:05;;;;;;;;;;;26.30;99.90;;;;;;8322352;28;19933;-72
2023/07/08 10:08:13;;;;;;;;;;;26.40;99.90;;;;;;8325185;28;20003;-72
2023/07/08 10:12:15;;;;;;;;;;;26.50;99.90;;;;;;8325925;28;20300;-72
2023/07/08 10:16:22;;;;;;;;;;;26.60;99.90;;;;;;8320936;28;19925;-72
2023/07/08 10:20:26;;;;;;;;;;;26.60;99.90;;;;;;8329871;28;19933;-72
2023/07/08 10:24:42;;;;;;;;;;;26.70;99.90;;;;;;8336090;28;19929;-73
2023/07/08 10:28:48;;;;;;;;;;;26.80;99.90;;;;;;8348150;28;19937;-72
2023/07/08 10:33:08;;;;;;;;;;;26.80;99.90;;;;;;8345060;28;19929;-73
2023/07/08 10:37:24;;;;;;;;;;;26.90;99.90;;;;;;8331828;28;20406;-72
2023/07/08 10:41:32;;;;;;;;;;;27.00;99.90;;;;;;8326891;28;19971;-72
2023/07/08 10:45:51;;;;;;;;;;;27.10;99.90;;;;;;8323583;28;19928;-72
2023/07/08 10:49:59;;;;;;;;;;;27.20;99.90;;;;;;8332954;28;19929;-72
2023/07/08 10:54:13;;;;;;;;;;;27.20;99.90;;;;;;8327053;28;19929;-73
2023/07/08 10:58:27;;;;;;;;;;;27.30;99.90;;;;;;8327942;28;19932;-72
2023/07/08 11:02:43;;;;;;;;;;;27.40;99.90;;;;;;8332854;28;19933;-72
2023/07/08 11:06:45;;;;;;;;;;;27.50;99.90;;;;;;8334890;28;19984;-72
2023/07/08 11:10:58;;;;;;;;;;;27.50;99.90;;;;;;8341910;28;19924;-72
2023/07/08 11:15:22;;;;;;;;;;;27.60;99.90;;;;;;8336288;28;20268;-72
2023/07/08 11:19:32;;;;;;;;;;;27.70;99.90;;;;;;8339034;28;19925;-73
2023/07/08 11:23:42;;;;;;;;;;;27.80;99.90;;;;;;8333159;28;19952;-72
2023/07/08 11:27:46;;;;;;;;;;;27.90;99.90;;;;;;8341525;28;19933;-73
2023/07/08 11:31:48;;;;;;;;;;;27.90;99.90;;;;;;8330438;28;20667;-73
2023/07/08 11:35:52;;;;;;;;;;;28.00;99.90;;;;;;8340081;28;20011;-72
2023/07/08 11:39:57;;;;;;;;;;;28.10;99.90;;;;;;8348089;28;19933;-74
2023/07/08 11:44:02;;;;;;;;;;;28.20;99.90;;;;;;8331485;28;19956;-72
2023/07/08 11:48:16;;;;;;;;;;;28.30;99.90;;;;;;8348034;28;20004;-72
2023/07/08 11:52:19;;;;;;;;;;;28.50;99.90;;;;;;8351793;28;20295;-73
2023/07/08 11:56:22;;;;;;;;;;;28.70;99.90;;;;;;8332219;28;20338;-73
2023/07/08 12:00:25;;;;;;;;;;;28.80;99.90;;;;;;8331823;28;20398;-72
2023/07/08 12:04:29;;;;;;;;;;;28.90;99.90;;;;;;8334546;28;20384;-72
2023/07/08 12:08:37;;;;;;;;;;;29.00;99.90;;;;;;8341244;28;19971;-72
2023/07/08 12:12:41;;;;;;;;;;;29.10;99.90;;;;;;8338850;28;19928;-72
2023/07/08 12:16:43;;;;;;;;;;;29.20;99.90;;;;;;8336706;28;19925;-72
2023/07/08 12:20:47;;;;;;;;;;;29.20;99.90;;;;;;8332551;28;19951;-73
2023/07/08 12:24:48;;;;;;;;;;;29.30;99.90;;;;;;8338819;28;19932;-72
2023/07/08 12:28:50;;;;;;;;;;;29.40;99.90;;;;;;8337695;28;19975;-73
2023/07/08 12:32:52;;;;;;;;;;;29.40;99.90;;;;;;8332546;28;19935;-72
2023/07/08 12:36:53;;;;;;;;;;;29.50;99.90;;;;;;8339530;28;19935;-73
2023/07/08 12:40:57;;;;;;;;;;;29.50;99.90;;;;;;8335765;28;19924;-72
2023/07/08 12:44:58;;;;;;;;;;;29.60;99.90;;;;;;8338756;28;20388;-72
2023/07/08 12:49:00;;;;;;;;;;;29.70;99.90;;;;;;8341319;28;20383;-72
2023/07/08 12:53:09;;;;;;;;;;;29.80;99.90;;;;;;8338595;28;19928;-73
2023/07/08 12:57:10;;;;;;;;;;;29.80;99.90;;;;;;8339174;28;20014;-72
2023/07/08 13:01:17;;;;;;;;;;;29.80;99.90;;;;;;8339242;28;20360;-72
2023/07/08 13:05:19;;;;;;;;;;;29.90;99.90;;;;;;8335180;28;19928;-73
2023/07/08 13:09:23;;;;;;;;;;;30.00;99.90;;;;;;8341623;28;19925;-72
2023/07/08 13:13:33;;;;;;;;;;;30.00;99.90;;;;;;8356951;28;20403;-72
2023/07/08 13:17:37;;;;;;;;;;;30.00;99.90;;;;;;8334485;28;20328;-73
2023/07/08 13:21:40;;;;;;;;;;;30.00;99.90;;;;;;8340361;28;19929;-73
2023/07/08 13:25:41;;;;;;;;;;;30.10;99.90;;;;;;8339824;28;19925;-73
2023/07/08 13:29:44;;;;;;;;;;;30.10;99.90;;;;;;8330473;28;19925;-73
2023/07/08 13:33:47;;;;;;;;;;;30.20;99.90;;;;;;8337413;28;19940;-72
2023/07/08 13:37:50;;;;;;;;;;;30.30;99.90;;;;;;8349942;28;20327;-72
2023/07/08 13:41:51;;;;;;;;;;;30.30;99.90;;;;;;8338843;28;20381;-72
2023/07/08 13:45:53;;;;;;;;;;;30.30;99.90;;;;;;8334869;28;19925;-72
2023/07/08 13:50:04;;;;;;;;;;;30.40;99.90;;;;;;8335589;28;20011;-72
2023/07/08 13:54:13;;;;;;;;;;;30.40;99.90;;;;;;8338982;28;19932;-72
2023/07/08 13:58:17;;;;;;;;;;;30.50;99.90;;;;;;8339738;28;19925;-73
2023/07/08 14:02:24;;;;;;;;;;;30.60;99.90;;;;;;8337974;28;20751;-73
2023/07/08 14:06:28;;;;;;;;;;;30.60;99.90;;;;;;8338339;28;19925;-72
2023/07/08 14:10:30;;;;;;;;;;;30.70;99.90;;;;;;8331028;28;19929;-72
2023/07/08 14:14:31;;;;;;;;;;;30.70;99.90;;;;;;8336667;28;20330;-72
2023/07/08 14:18:33;;;;;;;;;;;30.80;99.90;;;;;;8351891;28;19925;-73
2023/07/08 14:22:35;;;;;;;;;;;30.80;99.90;;;;;;8327487;28;20303;-74
2023/07/08 14:26:36;;;;;;;;;;;30.80;99.60;;;;;;8333639;28;19924;-73
2023/07/08 14:30:41;;;;;;;;;;;30.90;99.90;;;;;;8337779;28;20280;-72
2023/07/08 14:34:47;;;;;;;;;;;31.00;99.90;;;;;;8339585;28;19928;-73
2023/07/08 14:38:49;;;;;;;;;;;31.00;99.90;;;;;;8346989;28;19986;-73
2023/07/08 14:42:54;;;;;;;;;;;31.10;99.90;;;;;;8331213;28;19925;-73
2023/07/08 14:46:58;;;;;;;;;;;31.10;99.90;;;;;;8328226;28;19925;-73
2023/07/08 14:50:59;;;;;;;;;;;31.20;99.90;;;;;;8354469;28;19936;-73
2023/07/08 14:55:01;;;;;;;;;;;31.30;99.90;;;;;;8338572;28;19948;-73
2023/07/08 14:59:03;;;;;;;;;;;31.30;99.90;;;;;;8334463;28;19925;-73
2023/07/08 15:03:06;;;;;;;;;;;31.30;99.90;;;;;;8329481;28;20320;-73
2023/07/08 15:07:08;;;;;;;;;;;31.30;99.90;;;;;;8351592;28;20215;-73
2023/07/08 15:11:11;;;;;;;;;;;31.30;99.90;;;;;;8334428;28;20377;-73
2023/07/08 15:15:15;;;;;;;;;;;31.40;99.90;;;;;;8331925;28;19925;-72
2023/07/08 15:19:18;;;;;;;;;;;31.40;99.90;;;;;;8329783;28;19925;-73
2023/07/08 15:23:20;;;;;;;;;;;31.50;99.90;;;;;;8331879;28;20019;-73
2023/07/08 15:27:22;;;;;;;;;;;31.50;99.90;;;;;;8333350;28;19925;-73
2023/07/08 15:31:24;;;;;;;;;;;31.50;99.90;;;;;;8328152;28;19952;-73
2023/07/08 15:35:32;;;;;;;;;;;31.50;99.90;;;;;;8342892;28;20415;-73
2023/07/08 15:39:34;;;;;;;;;;;31.50;99.90;;;;;;8328924;28;20438;-73
2023/07/08 15:43:35;;;;;;;;;;;31.40;99.90;;;;;;8331731;28;20632;-73
2023/07/08 15:47:37;;;;;;;;;;;31.30;99.90;;;;;;8339090;28;20599;-73
2023/07/08 15:51:39;;;;;;;;;;;31.20;99.90;;;;;;8335804;28;19929;-72
2023/07/08 15:55:42;;;;;;;;;;;31.20;99.90;;;;;;8333577;28;19933;-72
2023/07/08 15:59:45;;;;;;;;;;;31.20;99.90;;;;;;8329163;28;19925;-72
2023/07/08 16:03:47;;;;;;;;;;;31.10;99.90;;;;;;8332533;28;19931;-73
2023/07/08 16:07:50;;;;;;;;;;;31.10;99.90;;;;;;8329715;28;20277;-72
2023/07/08 16:11:51;;;;;;;;;;;31.10;99.90;;;;;;8334190;28;20407;-72
2023/07/08 16:15:53;;;;;;;;;;;31.00;99.90;;;;;;8336078;28;19982;-72
2023/07/08 16:19:55;;;;;;;;;;;31.00;99.90;;;;;;8339516;28;20365;-72
2023/07/08 16:23:57;;;;;;;;;;;31.00;99.90;;;;;;8338415;28;19990;-72
2023/07/08 16:27:59;;;;;;;;;;;31.00;99.90;;;;;;8339047;28;19971;-72
2023/07/08 16:32:00;;;;;;;;;;;31.00;99.90;;;;;;8339627;28;19929;-72
2023/07/08 16:36:03;;;;;;;;;;;31.00;99.90;;;;;;8339293;28;19951;-72
2023/07/08 16:40:24;;;;;;;;;;;31.00;99.90;;;;;;8358599;28;19929;-72
2023/07/08 16:44:26;;;;;;;;;;;31.20;99.90;;;;;;8337305;28;19932;-73
2023/07/08 16:48:28;;;;;;;;;;;31.30;99.90;;;;;;8337577;28;19929;-72
2023/07/08 16:52:30;;;;;;;;;;;31.50;99.90;;;;;;8339967;28;22559;-72
2023/07/08 16:56:31;;;;;;;;;;;31.50;99.90;;;;;;8338082;28;19929;-72
2023/07/08 17:00:33;;;;;;;;;;;31.60;99.90;;;;;;8329697;28;19936;-73
2023/07/08 17:04:35;;;;;;;;;;;31.70;99.90;;;;;;8345643;28;19929;-73
2023/07/08 17:08:37;;;;;;;;;;;31.80;99.90;;;;;;8354235;28;19925;-73
2023/07/08 17:12:40;;;;;;;;;;;32.00;99.90;;;;;;8334111;28;20291;-72
2023/07/08 17:16:42;;;;;;;;;;;32.00;99.90;;;;;;8333299;28;20018;-73
2023/07/08 17:20:46;;;;;;;;;;;32.10;99.90;;;;;;8330118;28;20007;-72
2023/07/08 17:24:48;;;;;;;;;;;32.10;99.90;;;;;;8334107;28;19925;-73
2023/07/08 17:28:50;;;;;;;;;;;32.10;99.90;;;;;;8340022;28;20307;-73
2023/07/08 17:32:54;;;;;;;;;;;32.10;99.90;;;;;;8332216;28;19933;-73
2023/07/08 17:36:56;;;;;;;;;;;32.10;99.80;;;;;;8334709;28;19925;-73
2023/07/08 17:40:58;;;;;;;;;;;32.10;99.90;;;;;;8334356;28;19994;-73
2023/07/08 17:45:00;;;;;;;;;;;32.10;99.90;;;;;;8353690;28;19978;-70
2023/07/08 17:49:03;;;;;;;;;;;32.10;99.90;;;;;;8355653;28;19925;-71
2023/07/08 17:53:07;;;;;;;;;;;32.00;99.70;;;;;;8339719;28;19936;-71
2023/07/08 17:57:09;;;;;;;;;;;31.90;99.30;;;;;;8359621;28;20261;-72
2023/07/08 18:01:11;;;;;;;;;;;31.70;97.80;;;;;;8333122;28;19929;-72
2023/07/08 18:05:17;;;;;;;;;;;31.50;99.80;;;;;;8321477;28;19955;-70
2023/07/08 18:09:18;;;;;;;;;;;31.30;99.70;;;;;;8339196;28;19928;-70
2023/07/08 18:13:22;;;;;;;;;;;31.20;99.90;;;;;;8337306;28;20292;-70
2023/07/08 18:17:24;;;;;;;;;;;31.20;99.70;;;;;;8349081;28;19925;-71
2023/07/08 18:21:25;;;;;;;;;;;31.10;99.20;;;;;;8338814;28;20311;-71
2023/07/08 18:25:27;;;;;;;;;;;30.90;98.60;;;;;;8350007;28;19929;-71
2023/07/08 18:29:29;;;;;;;;;;;30.80;98.20;;;;;;8335722;28;20337;-70
2023/07/08 18:33:30;;;;;;;;;;;30.70;99.20;;;;;;8333208;28;19932;-71
2023/07/08 18:37:32;;;;;;;;;;;30.60;98.70;;;;;;8334913;28;19979;-71
2023/07/08 18:41:38;;;;;;;;;;;30.50;99.20;;;;;;8336250;28;19929;-70
2023/07/08 18:45:39;;;;;;;;;;;30.40;99.30;;;;;;8340925;28;19929;-70
2023/07/08 18:49:42;;;;;;;;;;;30.30;99.30;;;;;;8334241;28;19928;-70
2023/07/08 18:53:44;;;;;;;;;;;30.20;99.60;;;;;;8327294;28;20368;-70
2023/07/08 18:57:46;;;;;;;;;;;30.20;99.40;;;;;;8333994;28;19994;-70
2023/07/08 19:01:47;;;;;;;;;;;30.10;99.80;;;;;;8334344;28;20383;-70
2023/07/08 19:05:49;;;;;;;;;;;30.10;99.90;;;;;;8331771;28;19943;-70
2023/07/08 19:09:51;;;;;;;;;;;30.00;99.90;;;;;;8329101;28;19929;-70
2023/07/08 19:13:52;;;;;;;;;;;29.90;99.90;;;;;;8331059;28;19933;-70
2023/07/08 19:17:55;;;;;;;;;;;29.80;99.90;;;;;;8328043;28;19929;-70
2023/07/08 19:21:57;;;;;;;;;;;29.70;99.90;;;;;;8331348;28;20035;-70
2023/07/08 19:25:58;;;;;;;;;;;29.50;99.90;;;;;;8353610;28;19925;-70
2023/07/08 19:30:00;;;;;;;;;;;29.40;99.90;;;;;;8329888;28;20007;-72
2023/07/08 19:34:04;;;;;;;;;;;29.30;99.90;;;;;;8333787;28;19929;-72
2023/07/08 19:38:08;;;;;;;;;;;29.10;99.90;;;;;;8338299;28;19971;-72
2023/07/08 19:42:18;;;;;;;;;;;29.00;99.90;;;;;;8332505;28;19944;-72
2023/07/08 19:46:20;;;;;;;;;;;28.90;99.90;;;;;;8339022;28;19998;-72
2023/07/08 19:50:23;;;;;;;;;;;28.70;99.90;;;;;;8359003;28;19928;-72
2023/07/08 19:54:25;;;;;;;;;;;28.50;99.90;;;;;;8338392;28;19925;-72
2023/07/08 19:58:27;;;;;;;;;;;28.40;99.90;;;;;;8341503;28;19965;-72
2023/07/08 20:02:28;;;;;;;;;;;28.30;99.90;;;;;;8334326;28;20430;-72
2023/07/08 20:06:30;;;;;;;;;;;28.10;99.90;;;;;;8338944;28;19936;-72
2023/07/08 20:10:32;;;;;;;;;;;28.00;99.90;;;;;;8344454;28;19924;-72
2023/07/08 20:14:34;;;;;;;;;;;27.80;99.90;;;;;;8358733;28;19932;-72
2023/07/08 20:18:36;;;;;;;;;;;27.70;99.90;;;;;;8337111;28;20328;-72
2023/07/08 20:22:37;;;;;;;;;;;27.50;99.90;;;;;;8336253;28;19929;-72
2023/07/08 20:26:40;;;;;;;;;;;27.40;99.90;;;;;;8353578;28;19952;-72
2023/07/08 20:30:42;;;;;;;;;;;27.30;99.90;;;;;;8340863;28;19954;-72
2023/07/08 20:34:44;;;;;;;;;;;27.10;99.90;;;;;;8353509;28;19929;-72
2023/07/08 20:38:45;;;;;;;;;;;27.00;99.90;;;;;;8351612;28;19929;-72
2023/07/08 20:42:48;;;;;;;;;;;26.90;99.90;;;;;;8337155;28;19977;-72
2023/07/08 20:46:50;;;;;;;;;;;26.80;99.90;;;;;;8336400;28;20022;-72
2023/07/08 20:50:52;;;;;;;;;;;26.70;99.90;;;;;;8339806;28;19939;-72
2023/07/08 20:54:53;;;;;;;;;;;26.60;99.90;;;;;;8342067;28;19979;-72
2023/07/08 20:58:55;;;;;;;;;;;26.50;99.90;;;;;;8330907;28;19925;-72
2023/07/08 21:02:58;;;;;;;;;;;26.40;99.90;;;;;;8352796;28;19931;-72
2023/07/08 21:06:59;;;;;;;;;;;26.30;99.90;;;;;;8351884;28;20368;-72
2023/07/08 21:11:02;;;;;;;;;;;26.20;99.90;;;;;;8363446;28;19930;-72
2023/07/08 21:15:03;;;;;;;;;;;26.10;99.90;;;;;;8375801;28;19936;-72
2023/07/08 21:19:08;;;;;;;;;;;26.00;99.90;;;;;;8374263;28;19940;-72
2023/07/08 21:23:13;;;;;;;;;;;25.90;99.90;;;;;;8361335;28;19924;-72
2023/07/08 21:27:19;;;;;;;;;;;25.80;99.90;;;;;;8361543;28;19925;-72
2023/07/08 21:31:21;;;;;;;;;;;25.80;99.90;;;;;;8370047;28;19925;-72
2023/07/08 21:35:24;;;;;;;;;;;25.70;99.90;;;;;;8367156;28;19929;-72
2023/07/08 21:39:28;;;;;;;;;;;25.60;99.90;;;;;;8369547;28;19928;-72
2023/07/08 21:43:30;;;;;;;;;;;25.60;99.90;;;;;;8365906;28;20263;-72
2023/07/08 21:47:32;;;;;;;;;;;25.50;99.90;;;;;;8344858;28;20027;-72
2023/07/08 21:51:33;;;;;;;;;;;25.50;99.90;;;;;;8351815;28;20307;-72
2023/07/08 21:55:35;;;;;;;;;;;25.40;99.90;;;;;;8367471;28;20315;-72
2023/07/08 21:59:37;;;;;;;;;;;25.40;99.90;;;;;;8376007;28;19925;-72
2023/07/08 22:03:38;;;;;;;;;;;25.30;99.90;;;;;;8368803;28;19925;-72
2023/07/08 22:07:40;;;;;;;;;;;25.20;99.90;;;;;;8377350;28;19970;-72
2023/07/08 22:11:42;;;;;;;;;;;25.20;99.90;;;;;;8369225;28;19966;-72
2023/07/08 22:15:44;;;;;;;;;;;25.10;99.90;;;;;;8373601;28;19924;-72
2023/07/08 22:19:45;;;;;;;;;;;25.00;99.90;;;;;;8381135;28;19925;-72
2023/07/08 22:23:49;;;;;;;;;;;24.90;99.90;;;;;;8372152;28;20296;-72
2023/07/08 22:27:50;;;;;;;;;;;24.90;99.90;;;;;;8369421;28;19975;-72
2023/07/08 22:31:52;;;;;;;;;;;24.80;99.90;;;;;;8362999;28;20436;-72
2023/07/08 22:35:54;;;;;;;;;;;24.80;99.90;;;;;;8337933;28;20321;-72
2023/07/08 22:39:55;;;;;;;;;;;24.70;99.90;;;;;;8368557;28;19932;-72
2023/07/08 22:43:57;;;;;;;;;;;24.70;99.90;;;;;;8364444;28;19925;-72
2023/07/08 22:47:59;;;;;;;;;;;24.60;99.90;;;;;;8365252;28;19924;-72
2023/07/08 22:52:01;;;;;;;;;;;24.50;99.90;;;;;;8364234;28;19987;-72
2023/07/08 22:56:03;;;;;;;;;;;24.50;99.90;;;;;;8357713;28;20303;-72
2023/07/08 23:00:05;;;;;;;;;;;24.50;99.90;;;;;;8375225;28;20363;-72
2023/07/08 23:04:07;;;;;;;;;;;24.40;99.90;;;;;;8380478;28;20692;-72
2023/07/08 23:08:14;;;;;;;;;;;24.30;99.90;;;;;;8340048;28;20036;-72
2023/07/08 23:12:16;;;;;;;;;;;24.30;99.90;;;;;;8352517;28;19924;-72
2023/07/08 23:26:11;;;;;;;;;;;24.10;99.90;;;;;;8333548;28;19991;-72
2023/07/08 23:30:15;;;;;;;;;;;24.10;99.90;;;;;;8330123;28;19994;-72
2023/07/08 23:34:17;;;;;;;;;;;24.00;99.90;;;;;;8320555;28;19936;-72
2023/07/08 23:38:19;;;;;;;;;;;24.00;99.90;;;;;;8331254;28;19986;-72
2023/07/08 23:42:22;;;;;;;;;;;24.00;99.90;;;;;;8331333;28;20377;-72
2023/07/08 23:46:28;;;;;;;;;;;23.90;99.90;;;;;;8341981;28;19933;-72
2023/07/08 23:50:30;;;;;;;;;;;23.80;99.90;;;;;;8330081;28;20392;-72